createdAt,value
2018-12-13T00:01:46.407Z,13.50
2018-12-13T00:04:23.085Z,12.63
2018-12-13T00:06:56.760Z,11.83
2018-12-13T00:09:31.724Z,13.07
2018-12-13T00:12:06.822Z,12.60
2018-12-13T00:14:41.682Z,14.13
2018-12-13T00:17:15.116Z,13.60
2018-12-13T00:19:51.723Z,13.70
2018-12-13T00:22:26.799Z,13.37
2018-12-13T00:25:01.726Z,13.30
2018-12-13T00:27:36.856Z,13.33
2018-12-13T00:30:11.374Z,14.53
2018-12-13T00:32:46.815Z,13.20
2018-12-13T00:35:21.723Z,13.30
2018-12-13T00:37:55.971Z,13.93
2018-12-13T00:40:31.723Z,13.63
2018-12-13T00:43:09.452Z,13.77
2018-12-13T00:45:46.970Z,13.03
2018-12-13T00:48:23.774Z,13.80
2018-12-13T00:50:59.981Z,13.50
2018-12-13T00:53:36.765Z,13.43
2018-12-13T00:56:14.157Z,13.20
2018-12-13T00:58:48.589Z,13.13
2018-12-13T01:01:24.212Z,13.20
2018-12-13T01:04:00.950Z,12.80
2018-12-13T01:06:45.851Z,13.47
2018-12-13T01:09:17.153Z,12.17
2018-12-13T01:11:53.604Z,14.93
2018-12-13T01:14:28.123Z,14.20
2018-12-13T01:17:02.820Z,13.83
2018-12-13T01:19:37.795Z,15.73
2018-12-13T01:22:14.494Z,15.10
2018-12-13T01:24:49.031Z,15.07
2018-12-13T01:27:23.976Z,14.77
2018-12-13T01:29:59.266Z,14.73
2018-12-13T01:32:35.004Z,15.20
2018-12-13T01:35:09.324Z,14.67
2018-12-13T01:37:44.762Z,15.10
2018-12-13T01:40:18.909Z,14.20
2018-12-13T01:42:52.640Z,15.27
2018-12-13T01:45:31.015Z,14.77
2018-12-13T01:48:05.724Z,15.13
2018-12-13T01:50:38.836Z,16.07
2018-12-13T01:53:13.583Z,14.00
2018-12-13T01:55:48.375Z,12.07
2018-12-13T01:58:23.793Z,12.30
2018-12-13T02:00:58.282Z,12.33
2018-12-13T02:03:33.226Z,10.63
2018-12-13T02:06:16.990Z,9.90
2018-12-13T02:08:57.045Z,8.23
2018-12-13T02:11:31.725Z,7.23
2018-12-13T02:14:06.238Z,7.60
2018-12-13T02:16:38.980Z,6.87
2018-12-13T02:19:14.770Z,7.33
2018-12-13T02:21:49.512Z,7.30
2018-12-13T02:24:25.251Z,7.50
2018-12-13T02:27:00.973Z,7.50
2018-12-13T02:29:38.284Z,7.10
2018-12-13T02:32:13.922Z,6.80
2018-12-13T02:34:51.113Z,6.00
2018-12-13T02:37:27.630Z,5.87
2018-12-13T02:40:04.299Z,6.50
2018-12-13T02:42:39.789Z,6.53
2018-12-13T02:45:15.457Z,5.70
2018-12-13T02:47:52.618Z,7.00
2018-12-13T02:50:28.110Z,6.47
2018-12-13T02:53:02.627Z,6.40
2018-12-13T02:55:38.094Z,6.73
2018-12-13T02:58:12.880Z,6.40
2018-12-13T03:00:46.813Z,6.67
2018-12-13T03:03:20.953Z,6.23
2018-12-13T03:05:56.622Z,6.60
2018-12-13T03:08:30.993Z,6.43
2018-12-13T03:11:06.037Z,7.00
2018-12-13T03:13:41.403Z,7.10
2018-12-13T03:16:16.496Z,7.27
2018-12-13T03:18:53.613Z,7.20
2018-12-13T03:21:30.450Z,7.93
2018-12-13T03:24:06.467Z,8.60
2018-12-13T03:26:42.511Z,7.50
2018-12-13T03:29:16.686Z,8.57
2018-12-13T03:31:50.843Z,9.10
2018-12-13T03:34:25.481Z,8.87
2018-12-13T03:37:00.698Z,10.00
2018-12-13T03:39:34.422Z,10.13
2018-12-13T03:42:09.455Z,10.17
2018-12-13T03:44:46.073Z,10.03
2018-12-13T03:47:23.011Z,10.50
2018-12-13T03:49:58.029Z,11.07
2018-12-13T03:52:34.596Z,12.20
2018-12-13T03:55:09.812Z,11.53
2018-12-13T03:57:45.056Z,12.57
2018-12-13T04:00:18.198Z,11.53
2018-12-13T04:02:52.929Z,12.10
2018-12-13T04:05:28.102Z,11.17
2018-12-13T04:08:04.952Z,12.37
2018-12-13T04:10:37.489Z,11.03
2018-12-13T04:13:11.727Z,11.03
2018-12-13T04:15:45.991Z,13.00
2018-12-13T04:18:20.305Z,11.77
2018-12-13T04:20:54.885Z,8.93
2018-12-13T04:23:30.618Z,13.23
2018-12-13T04:26:06.356Z,12.43
2018-12-13T04:28:41.726Z,12.27
2018-12-13T04:31:18.889Z,13.20
2018-12-13T04:33:54.680Z,13.37
2018-12-13T04:36:30.086Z,12.80
2018-12-13T04:39:05.709Z,12.30
2018-12-13T04:41:39.512Z,13.30
2018-12-13T04:44:16.356Z,13.17
2018-12-13T04:46:52.929Z,9.50
2018-12-13T04:49:28.950Z,13.50
2018-12-13T04:52:04.387Z,11.97
2018-12-13T04:54:40.103Z,12.87
2018-12-13T04:57:15.820Z,10.93
2018-12-13T04:59:51.725Z,13.67
2018-12-13T05:02:26.300Z,13.20
2018-12-13T05:05:00.392Z,13.07
2018-12-13T05:07:33.640Z,12.17
2018-12-13T05:10:08.716Z,13.13
2018-12-13T05:12:43.364Z,12.93
2018-12-13T05:15:18.682Z,12.97
2018-12-13T05:17:51.727Z,13.47
2018-12-13T05:20:30.588Z,13.87
2018-12-13T05:23:06.312Z,10.50
2018-12-13T05:25:41.727Z,14.00
2018-12-13T05:28:18.386Z,14.80
2018-12-13T05:30:54.050Z,13.17
2018-12-13T05:33:30.240Z,13.67
2018-12-13T05:36:05.281Z,13.33
2018-12-13T05:38:39.798Z,14.33
2018-12-13T05:41:15.663Z,14.63
2018-12-13T05:43:56.154Z,14.10
2018-12-13T05:46:31.727Z,12.07
2018-12-13T05:49:07.990Z,14.43
2018-12-13T05:51:42.982Z,11.53
2018-12-13T05:54:18.172Z,14.70
2018-12-13T05:56:52.809Z,13.07
2018-12-13T05:59:26.902Z,15.03
2018-12-13T06:02:01.367Z,13.80
2018-12-13T06:04:37.758Z,13.77
2018-12-13T06:07:13.002Z,15.73
2018-12-13T06:09:49.265Z,17.03
2018-12-13T06:12:24.133Z,16.07
2018-12-13T06:15:00.847Z,16.13
2018-12-13T06:17:39.422Z,15.87
2018-12-13T06:20:12.821Z,16.10
2018-12-13T06:22:48.704Z,15.83
2018-12-13T06:25:23.710Z,18.10
2018-12-13T06:27:59.487Z,17.53
2018-12-13T06:30:34.459Z,17.93
2018-12-13T06:33:09.688Z,17.60
2018-12-13T06:35:42.894Z,16.43
2018-12-13T06:38:15.835Z,18.10
2018-12-13T06:40:49.712Z,16.87
2018-12-13T06:43:24.252Z,18.87
2018-12-13T06:45:59.214Z,19.20
2018-12-13T06:48:33.741Z,19.53
2018-12-13T06:51:07.444Z,18.50
2018-12-13T06:53:45.763Z,19.37
2018-12-13T06:56:20.527Z,19.30
2018-12-13T06:58:54.477Z,20.50
2018-12-13T07:01:30.399Z,19.50
2018-12-13T07:04:07.126Z,18.63
2018-12-13T07:06:42.832Z,19.90
2018-12-13T07:09:17.712Z,19.77
2018-12-13T07:11:47.927Z,21.00
2018-12-13T07:14:23.996Z,19.57
2018-12-13T07:16:58.066Z,20.63
2018-12-13T07:19:29.474Z,20.10
2018-12-13T07:22:01.579Z,21.00
2018-12-13T07:24:35.821Z,19.30
2018-12-13T07:27:09.135Z,18.53
2018-12-13T07:29:42.015Z,16.70
2018-12-13T07:32:13.128Z,18.60
2018-12-13T07:34:46.431Z,18.57
2018-12-13T07:37:21.728Z,18.83
2018-12-13T07:39:53.802Z,16.93
2018-12-13T07:42:23.661Z,17.90
2018-12-13T07:44:57.731Z,17.57
2018-12-13T07:47:32.304Z,16.83
2018-12-13T07:50:04.995Z,17.20
2018-12-13T07:52:37.876Z,15.57
2018-12-13T07:55:13.186Z,17.87
2018-12-13T07:57:47.564Z,16.40
2018-12-13T08:00:21.732Z,16.57
2018-12-13T08:02:55.937Z,16.17
2018-12-13T08:05:30.575Z,15.50
2018-12-13T08:08:02.782Z,16.50
2018-12-13T08:10:39.057Z,15.23
2018-12-13T08:13:13.412Z,15.73
2018-12-13T08:15:49.410Z,16.90
2018-12-13T08:18:24.328Z,15.93
2018-12-13T08:20:59.465Z,17.20
2018-12-13T08:23:35.817Z,15.27
2018-12-13T08:26:10.838Z,15.23
2018-12-13T08:28:43.735Z,15.10
2018-12-13T08:31:18.021Z,14.90
2018-12-13T08:33:52.737Z,16.00
2018-12-13T08:36:24.870Z,16.17
2018-12-13T08:38:58.228Z,15.67
2018-12-13T08:41:31.712Z,16.23
2018-12-13T08:44:09.471Z,14.53
2018-12-13T08:46:46.827Z,16.53
2018-12-13T08:49:20.177Z,14.83
2018-12-13T08:51:53.903Z,14.33
2018-12-13T08:54:29.080Z,14.27
2018-12-13T08:57:05.184Z,15.07
2018-12-13T08:59:40.786Z,14.80
2018-12-13T09:02:16.108Z,15.00
2018-12-13T09:04:50.401Z,14.13
2018-12-13T09:07:24.605Z,12.80
2018-12-13T09:09:55.148Z,14.20
2018-12-13T09:12:31.708Z,15.20
2018-12-13T09:15:06.666Z,16.10
2018-12-13T09:17:43.386Z,15.13
2018-12-13T09:20:18.974Z,16.70
2018-12-13T09:22:54.795Z,16.80
2018-12-13T09:25:29.551Z,15.07
2018-12-13T09:28:05.451Z,15.30
2018-12-13T09:30:40.655Z,16.93
2018-12-13T09:33:16.956Z,15.47
2018-12-13T09:35:52.124Z,16.83
2018-12-13T09:41:03.731Z,14.00
2018-12-13T09:43:37.560Z,16.57
2018-12-13T09:46:13.083Z,16.87
2018-12-13T09:48:44.464Z,14.37
2018-12-13T09:51:19.321Z,14.27
2018-12-13T09:53:54.736Z,16.47
2018-12-13T09:56:28.996Z,15.63
2018-12-13T09:59:05.093Z,15.67
2018-12-13T10:01:39.211Z,15.73
2018-12-13T10:04:08.978Z,14.37
2018-12-13T10:06:41.161Z,14.53
2018-12-13T10:09:14.969Z,14.77
2018-12-13T10:11:51.600Z,14.93
2018-12-13T10:14:26.629Z,14.10
2018-12-13T10:17:00.899Z,14.93
2018-12-13T10:19:37.043Z,15.20
2018-12-13T10:22:11.985Z,16.23
2018-12-13T10:24:47.306Z,22.30
2018-12-13T10:27:22.980Z,16.00
2018-12-13T10:29:58.435Z,22.37
2018-12-13T10:32:33.835Z,14.03
2018-12-13T10:35:11.750Z,13.87
2018-12-13T10:37:47.020Z,14.53
2018-12-13T10:40:25.552Z,14.87
2018-12-13T10:42:56.421Z,13.47
2018-12-13T10:45:28.071Z,13.53
2018-12-13T10:47:58.193Z,14.70
2018-12-13T10:50:33.741Z,14.00
2018-12-13T10:53:02.705Z,14.13
2018-12-13T10:55:34.540Z,11.60
2018-12-13T10:58:08.610Z,13.87
2018-12-13T11:00:46.201Z,12.13
2018-12-13T11:03:24.696Z,11.93
2018-12-13T11:06:01.180Z,12.77
2018-12-13T11:08:35.571Z,11.80
2018-12-13T11:11:10.568Z,12.03
2018-12-13T11:13:44.589Z,12.17
2018-12-13T11:16:20.428Z,12.20
2018-12-13T11:18:54.797Z,12.97
2018-12-13T11:21:24.333Z,11.07
2018-12-13T11:23:55.457Z,11.73
2018-12-13T11:26:28.442Z,9.30
2018-12-13T11:31:55.062Z,11.27
2018-12-13T11:34:23.095Z,10.87
2018-12-13T11:36:54.929Z,11.07
2018-12-13T11:39:23.612Z,12.43
2018-12-13T11:41:56.067Z,12.23
2018-12-13T11:44:26.405Z,11.97
2018-12-13T11:46:59.879Z,12.27
2018-12-13T11:49:31.729Z,11.17
2018-12-13T11:52:05.265Z,11.50
2018-12-13T11:54:38.524Z,10.87
2018-12-13T11:57:11.103Z,10.93
2018-12-13T11:59:45.516Z,12.20
2018-12-13T12:02:23.968Z,10.70
2018-12-13T12:04:57.748Z,9.90
2018-12-13T12:07:31.728Z,8.87
2018-12-13T12:10:00.609Z,9.20
2018-12-13T12:12:34.586Z,9.43
2018-12-13T12:15:03.365Z,9.57
2018-12-13T12:17:36.871Z,8.67
2018-12-13T12:20:10.997Z,11.07
2018-12-13T12:22:45.832Z,11.10
2018-12-13T12:25:21.728Z,10.43
2018-12-13T12:27:56.732Z,11.20
2018-12-13T12:30:31.575Z,9.83
2018-12-13T12:33:05.703Z,10.10
2018-12-13T12:35:38.910Z,10.27
2018-12-13T12:38:12.963Z,10.40
2018-12-13T12:40:48.688Z,11.07
2018-12-13T12:43:24.017Z,12.07
2018-12-13T12:45:52.374Z,10.63
2018-12-13T12:48:26.798Z,11.37
2018-12-13T12:50:55.415Z,11.00
2018-12-13T12:53:28.529Z,9.93
2018-12-13T12:56:03.894Z,11.07
2018-12-13T12:58:37.373Z,11.23
2018-12-13T13:01:11.729Z,10.37
2018-12-13T13:03:45.808Z,10.97
2018-12-13T13:06:20.109Z,10.93
2018-12-13T13:08:54.484Z,11.33
2018-12-13T13:11:27.549Z,10.97
2018-12-13T13:14:01.437Z,11.20
2018-12-13T13:16:32.985Z,10.97
2018-12-13T13:19:07.009Z,12.97
2018-12-13T13:21:39.602Z,13.37
2018-12-13T13:24:16.262Z,11.13
2018-12-13T13:26:50.089Z,13.37
2018-12-13T13:29:24.299Z,13.20
2018-12-13T13:31:57.367Z,12.80
2018-12-13T13:34:26.411Z,11.80
2018-12-13T13:36:59.809Z,12.57
2018-12-13T13:39:31.668Z,11.33
2018-12-13T13:42:03.282Z,11.80
2018-12-13T13:44:39.094Z,12.57
2018-12-13T13:47:11.729Z,12.63
2018-12-13T13:49:43.887Z,14.30
2018-12-13T13:52:18.023Z,15.47
2018-12-13T13:54:52.460Z,15.23
2018-12-13T13:57:25.083Z,13.93
2018-12-13T13:59:59.583Z,15.27
2018-12-13T14:02:34.090Z,15.17
2018-12-13T14:05:08.544Z,16.47
2018-12-13T14:07:42.957Z,16.30
2018-12-13T14:10:20.511Z,15.43
2018-12-13T14:12:51.729Z,15.30
2018-12-13T14:15:22.483Z,16.60
2018-12-13T14:17:56.049Z,15.63
2018-12-13T14:20:30.568Z,16.07
2018-12-13T14:23:03.465Z,15.50
2018-12-13T14:25:38.106Z,14.97
2018-12-13T14:28:10.046Z,15.73
2018-12-13T14:30:46.523Z,16.23
2018-12-13T14:33:22.499Z,15.03
2018-12-13T14:35:55.701Z,14.67
2018-12-13T14:38:30.532Z,15.80
2018-12-13T14:41:03.029Z,16.17
2018-12-13T14:43:36.304Z,16.20
2018-12-13T14:46:04.960Z,16.87
2018-12-13T14:48:37.651Z,17.57
2018-12-13T14:51:11.728Z,15.97
2018-12-13T14:53:46.446Z,14.03
2018-12-13T14:56:20.225Z,16.53
2018-12-13T14:58:54.227Z,16.73
2018-12-13T15:01:26.741Z,17.17
2018-12-13T15:04:00.510Z,15.80
2018-12-13T15:06:37.173Z,16.37
2018-12-13T15:09:11.727Z,16.53
2018-12-13T15:11:43.871Z,18.40
2018-12-13T15:14:14.370Z,16.87
2018-12-13T15:16:42.768Z,18.07
2018-12-13T15:19:18.261Z,17.87
2018-12-13T15:21:51.727Z,16.73
2018-12-13T15:24:26.816Z,17.90
2018-12-13T15:27:00.928Z,16.97
2018-12-13T15:29:35.409Z,19.30
2018-12-13T15:32:09.303Z,17.77
2018-12-13T15:34:42.801Z,18.30
2018-12-13T15:37:16.528Z,16.87
2018-12-13T15:39:57.066Z,17.57
2018-12-13T15:42:31.726Z,18.30
2018-12-13T15:45:11.726Z,18.77
2018-12-13T15:47:45.203Z,19.10
2018-12-13T15:50:19.490Z,16.60
2018-12-13T15:52:52.601Z,18.33
2018-12-13T15:55:27.694Z,19.33
2018-12-13T15:58:04.766Z,17.80
2018-12-13T16:00:38.578Z,18.40
2018-12-13T16:03:13.256Z,17.83
2018-12-13T16:05:49.862Z,17.07
2018-12-13T16:08:22.263Z,19.23
2018-12-13T16:10:55.089Z,18.57
2018-12-13T16:13:28.630Z,18.47
2018-12-13T16:16:02.950Z,18.87
2018-12-13T16:18:33.620Z,17.57
2018-12-13T16:21:05.272Z,19.43
2018-12-13T16:23:39.783Z,17.47
2018-12-13T16:26:11.738Z,18.43
2018-12-13T16:28:47.311Z,18.00
2018-12-13T16:31:22.657Z,19.27
2018-12-13T16:33:52.486Z,17.23
2018-12-13T16:36:22.640Z,18.07
2018-12-13T16:38:54.108Z,17.30
2018-12-13T16:41:23.415Z,17.00
2018-12-13T16:43:51.225Z,18.47
2018-12-13T16:46:21.276Z,19.40
2018-12-13T16:48:49.070Z,19.60
2018-12-13T16:51:19.518Z,18.60
2018-12-13T16:53:51.666Z,17.87
2018-12-13T16:56:24.339Z,17.47
2018-12-13T16:58:53.563Z,18.87
2018-12-13T17:01:23.093Z,19.47
2018-12-13T17:03:52.724Z,17.87
2018-12-13T17:06:22.525Z,18.37
2018-12-13T17:08:52.431Z,18.23
2018-12-13T17:11:22.574Z,18.43
2018-12-13T17:13:54.006Z,14.53
2018-12-13T17:16:24.122Z,17.07
2018-12-13T17:18:53.292Z,18.03
2018-12-13T17:21:23.809Z,17.47
2018-12-13T17:23:53.171Z,18.00
2018-12-13T17:26:23.077Z,18.90
2018-12-13T17:28:53.424Z,17.70
2018-12-13T17:31:25.239Z,18.50
2018-12-13T17:33:57.251Z,18.80
2018-12-13T17:36:27.767Z,19.20
2018-12-13T17:38:59.268Z,18.67
2018-12-13T17:41:29.225Z,19.77
2018-12-13T17:44:01.790Z,20.67
2018-12-13T17:46:33.255Z,20.00
2018-12-13T17:49:03.457Z,20.20
2018-12-13T17:51:33.016Z,19.93
2018-12-13T17:54:02.396Z,17.60
2018-12-13T17:56:32.603Z,18.33
2018-12-13T17:59:02.266Z,17.60
2018-12-13T18:01:32.593Z,19.70
2018-12-13T18:04:02.848Z,20.40
2018-12-13T18:06:32.930Z,19.10
2018-12-13T18:09:05.381Z,19.00
2018-12-13T18:11:34.859Z,18.63
2018-12-13T18:14:04.473Z,19.37
2018-12-13T18:16:34.306Z,19.37
2018-12-13T18:19:06.165Z,18.17
2018-12-13T18:21:36.760Z,18.93
2018-12-13T18:24:12.650Z,19.43
2018-12-13T18:26:44.666Z,18.20
2018-12-13T18:29:16.833Z,18.50
2018-12-13T18:31:47.218Z,17.90
2018-12-13T18:34:17.466Z,18.50
2018-12-13T18:36:47.502Z,17.30
2018-12-13T18:39:17.124Z,16.87
2018-12-13T18:41:47.076Z,17.80
2018-12-13T18:44:17.371Z,17.80
2018-12-13T18:46:49.117Z,18.60
2018-12-13T18:49:21.015Z,17.90
2018-12-13T18:51:51.514Z,19.10
2018-12-13T18:54:22.562Z,18.80
2018-12-13T18:56:51.996Z,19.57
2018-12-13T18:59:22.428Z,18.10
2018-12-13T19:01:53.939Z,19.83
2018-12-13T19:04:24.918Z,21.27
2018-12-13T19:06:53.875Z,21.20
2018-12-13T19:09:23.250Z,21.20
2018-12-13T19:12:02.383Z,22.43
2018-12-13T19:14:34.792Z,22.63
2018-12-13T19:17:04.278Z,22.03
2018-12-13T19:19:39.809Z,20.60
2018-12-13T19:22:10.723Z,22.53
2018-12-13T19:24:39.889Z,25.83
2018-12-13T19:27:11.174Z,23.50
2018-12-13T19:29:42.235Z,22.70
2018-12-13T19:32:12.671Z,22.13
2018-12-13T19:34:45.754Z,22.27
2018-12-13T19:37:18.062Z,22.57
2018-12-13T19:39:51.810Z,21.93
2018-12-13T19:42:22.894Z,21.67
2018-12-13T19:44:52.560Z,21.43
2018-12-13T19:47:21.340Z,21.53
2018-12-13T19:49:51.338Z,21.53
2018-12-13T19:52:22.202Z,22.17
2018-12-13T19:54:52.850Z,20.80
2018-12-13T19:57:23.359Z,20.90
2018-12-13T19:59:53.361Z,20.20
2018-12-13T20:02:23.641Z,17.70
2018-12-13T20:04:55.909Z,18.03
2018-12-13T20:07:28.229Z,18.30
2018-12-13T20:09:59.023Z,19.17
2018-12-13T20:12:30.343Z,17.13
2018-12-13T20:15:03.127Z,18.97
2018-12-13T20:17:32.404Z,19.17
2018-12-13T20:20:02.640Z,19.60
2018-12-13T20:22:32.786Z,20.17
2018-12-13T20:25:02.440Z,21.27
2018-12-13T20:27:32.475Z,19.33
2018-12-13T20:30:01.972Z,19.30
2018-12-13T20:32:34.156Z,20.57
2018-12-13T20:35:06.392Z,16.53
2018-12-13T20:37:34.969Z,19.27
2018-12-13T20:40:06.682Z,17.93
2018-12-13T20:42:36.124Z,16.17
2018-12-13T20:45:06.758Z,16.67
2018-12-13T20:47:38.574Z,16.50
2018-12-13T20:50:07.242Z,16.53
2018-12-13T20:52:37.915Z,18.17
2018-12-13T20:55:07.644Z,17.90
2018-12-13T20:57:38.030Z,18.60
2018-12-13T21:00:11.609Z,18.47
2018-12-13T21:02:43.373Z,17.50
2018-12-13T21:05:14.923Z,18.60
2018-12-13T21:07:47.100Z,19.10
2018-12-13T21:10:16.852Z,19.20
2018-12-13T21:12:47.649Z,19.77
2018-12-13T21:15:21.359Z,16.03
2018-12-13T21:17:51.915Z,16.67
2018-12-13T21:20:22.399Z,18.50
2018-12-13T21:22:56.990Z,17.20
2018-12-13T21:25:27.590Z,17.50
2018-12-13T21:28:00.730Z,17.97
2018-12-13T21:30:32.277Z,18.53
2018-12-13T21:33:04.838Z,18.30
2018-12-13T21:35:36.387Z,18.43
2018-12-13T21:38:07.358Z,18.53
2018-12-13T21:40:36.168Z,19.47
2018-12-13T21:43:05.024Z,18.97
2018-12-13T21:45:35.340Z,18.07
2018-12-13T21:48:03.434Z,18.07
2018-12-13T21:50:34.523Z,18.00
2018-12-13T21:53:05.031Z,18.03
2018-12-13T21:55:36.024Z,18.10
2018-12-13T21:58:05.532Z,18.03
2018-12-13T22:00:34.397Z,18.97
2018-12-13T22:03:06.191Z,17.87
2018-12-13T22:05:39.628Z,18.80
2018-12-13T22:08:13.705Z,16.83
2018-12-13T22:10:48.246Z,18.13
2018-12-13T22:13:23.260Z,18.63
2018-12-13T22:16:01.733Z,19.13
2018-12-13T22:18:30.200Z,18.83
2018-12-13T22:21:04.437Z,17.10
2018-12-13T22:23:38.778Z,18.40
2018-12-13T22:26:14.437Z,19.20
2018-12-13T22:28:48.998Z,15.00
2018-12-13T22:31:19.069Z,18.07
2018-12-13T22:33:51.932Z,19.40
2018-12-13T22:36:28.734Z,16.93
2018-12-13T22:39:03.227Z,16.50
2018-12-13T22:41:36.700Z,18.53
2018-12-13T22:44:11.297Z,19.23
2018-12-13T22:46:39.157Z,18.20
2018-12-13T22:49:07.753Z,19.47
2018-12-13T22:51:41.734Z,19.23
2018-12-13T22:54:13.505Z,19.13
2018-12-13T22:56:47.159Z,18.33
2018-12-13T22:59:21.639Z,17.67
2018-12-13T23:01:55.530Z,19.13
2018-12-13T23:04:30.351Z,17.70
2018-12-13T23:07:02.927Z,17.20
2018-12-13T23:09:36.224Z,17.87
2018-12-13T23:12:09.452Z,17.23
2018-12-13T23:14:40.862Z,18.40
2018-12-13T23:17:12.835Z,19.33
2018-12-13T23:19:45.151Z,18.97
2018-12-13T23:22:21.735Z,17.40
2018-12-13T23:24:52.921Z,18.17
2018-12-13T23:27:25.236Z,18.03
2018-12-13T23:29:57.912Z,17.83
2018-12-13T23:32:32.654Z,18.23
2018-12-13T23:35:04.791Z,19.50
2018-12-13T23:37:38.075Z,19.43
2018-12-13T23:40:11.223Z,19.87
2018-12-13T23:42:46.682Z,19.80
2018-12-13T23:45:20.385Z,19.90
2018-12-13T23:47:56.102Z,19.73
2018-12-13T23:50:31.734Z,21.13
2018-12-13T23:53:09.011Z,19.53
2018-12-13T23:55:44.232Z,17.77
2018-12-13T23:58:19.054Z,19.97
